Queen Of Burnaby — VCVV — position and weather

sailwx.info

Track history (hours):
 
Tides and Currents Weather Stations Pressure Air Temp Water Temp Dewpoint Dewpoint Depression Visibility Wind Speed Wind Dir Waves Ship Positions

Queen Of Burnaby

Last reported at 2015-Jul-08 01:32 UTC. Time now 2015-Jul-08 02:15 UTC.
Position N 49°44' W 124°55'.

Length 130 m; draft 4 m.

Type: Passenger vessel. MMSI: 316001246.

Date/timePositionNaut miles runAvg speedWind from/ knotsBaromVisibWave heightAir tempDewpointWater temp
2015-Jul-08 01:32N 49°44' W 124°55'1212.5
2015-Jul-08 00:33N 49°49' W 124°38'4 3.7
2015-Jul-07 23:33N 49°50' W 124°32'1313.3
2015-Jul-07 22:33N 49°46' W 124°52'3 1.1
2015-Jul-07 20:11N 49°44' W 124°55'711.2
2015-Jul-07 19:33N 49°47' W 124°45'9 7.6
2015-Jul-07 18:21N 49°50' W 124°32'1013.3
2015-Jul-07 17:33N 49°46' W 124°47'6 5.5
2015-Jul-07 16:30N 49°44' W 124°55'1010.9
2015-Jul-07 15:33N 49°48' W 124°40'5 4.7
2015-Jul-07 14:33N 49°50' W 124°34'1413.7
2015-Jul-07 13:33N 49°45' W 124°53'2 1.3
2015-Jul-07 12:22N 49°44' W 124°55'0 0.0
2015-Jul-07 11:25N 49°44' W 124°55'0 0.0
2015-Jul-07 10:31N 49°44' W 124°55'0 0.0
2015-Jul-07 09:16N 49°44' W 124°55'0 0.0
2015-Jul-07 08:28N 49°44' W 124°55'6 1.5
2015-Jul-07 04:33N 49°46' W 124°47'10 8.9
2015-Jul-07 03:27N 49°50' W 124°33'1213.9
2015-Jul-07 02:33N 49°46' W 124°51'3 3.3
2015-Jul-07 01:32N 49°44' W 124°55'1212.7
2015-Jul-07 00:33N 49°49' W 124°37'4 3.7
2015-Jul-06 23:33N 49°50' W 124°32'1313.5
2015-Jul-06 22:33N 49°46' W 124°52'3 2.6
2015-Jul-06 21:33N 49°44' W 124°55'0 0.0
2015-Jul-06 20:31N 49°44' W 124°55'8 8.5
2015-Jul-06 19:33N 49°48' W 124°44'8 6.9
2015-Jul-06 18:22N 49°50' W 124°32'1012.6
2015-Jul-06 17:33N 49°46' W 124°47'6 5.3
2015-Jul-06 16:27N 49°44' W 124°55'1112.4
2015-Jul-06 15:33N 49°48' W 124°40'4 4.0
2015-Jul-06 14:33N 49°50' W 124°34'1413.5
2015-Jul-06 13:33N 49°45' W 124°54'1 0.3
2015-Jul-06 08:17N 49°44' W 124°55'0 0.0
2015-Jul-06 07:26N 49°44' W 124°55'0 0.0
2015-Jul-06 05:13N 49°44' W 124°55'812.4
2015-Jul-06 04:33N 49°48' W 124°44'8 7.8
2015-Jul-06 03:31N 49°50' W 124°32'1313.6
2015-Jul-06 02:33N 49°46' W 124°51'2 1.6
2015-Jul-06 01:32N 49°45' W 124°54'1111.6
2015-Jul-06 00:33N 49°49' W 124°37'3 2.7
2015-Jul-05 23:32N 49°50' W 124°33'1413.9
2015-Jul-05 22:33N 49°45' W 124°53'2 0.8
2015-Jul-05 20:29N 49°44' W 124°55'7 7.6
2015-Jul-05 19:33N 49°47' W 124°45'9 6.9
2015-Jul-05 18:15N 49°50' W 124°32'1013.7
2015-Jul-05 17:33N 49°47' W 124°46'6 5.6
2015-Jul-05 16:24N 49°44' W 124°55'1012.1
2015-Jul-05 15:32N 49°48' W 124°40'5 5.3
2015-Jul-05 14:33N 49°50' W 124°33'1413.8
2015-Jul-05 13:33N 49°45' W 124°53'2 0.4
2015-Jul-05 08:28N 49°44' W 124°55'0 0.0
2015-Jul-05 07:28N 49°44' W 124°55'6 1.9
2015-Jul-05 04:33N 49°47' W 124°48'11 8.7
2015-Jul-05 03:20N 49°50' W 124°32'911.8
2015-Jul-05 02:33N 49°47' W 124°45'7 6.9
2015-Jul-05 01:32N 49°44' W 124°55'0 0.0
2015-Jul-05 00:32N 49°44' W 124°55'0 0.0
2015-Jul-04 23:32N 49°44' W 124°55'0 0.0
2015-Jul-04 22:32N 49°44' W 124°55'0 0.0
2015-Jul-04 21:32N 49°44' W 124°55'0 0.0
2015-Jul-04 20:33N 49°44' W 124°55'7 7.3
2015-Jul-04 19:33N 49°47' W 124°45'9 7.4
2015-Jul-04 18:21N 49°50' W 124°32'912.0
2015-Jul-04 17:34N 49°47' W 124°46'7 6.7
2015-Jul-04 16:33N 49°44' W 124°55'1111.0
2015-Jul-04 15:33N 49°48' W 124°39'4 4.0
2015-Jul-04 14:33N 49°50' W 124°34'1313.1
2015-Jul-04 13:33N 49°45' W 124°53'2 1.6
2015-Jul-04 12:23N 49°44' W 124°55'0 0.0
2015-Jul-04 11:29N 49°44' W 124°55'0 0.0
2015-Jul-04 10:32N 49°44' W 124°55'0 0.0
2015-Jul-04 09:29N 49°44' W 124°55'0 0.0
2015-Jul-04 08:23N 49°44' W 124°55'0 0.0
2015-Jul-04 05:17N 49°44' W 124°55'810.4
2015-Jul-04 04:33N 49°47' W 124°44'9 8.2
2015-Jul-04 03:31N 49°50' W 124°32'1313.9
2015-Jul-04 02:33N 49°46' W 124°51'3 2.8
2015-Jul-04 01:34N 49°44' W 124°55'1313.1
2015-Jul-04 00:32N 49°49' W 124°36'3 2.6
2015-Jul-03 23:33N 49°50' W 124°32'1413.8
2015-Jul-03 22:33N 49°45' W 124°52'2 2.0
2015-Jul-03 21:29N 49°44' W 124°55'0 0.0
2015-Jul-03 20:23N 49°44' W 124°55'8 9.2
2015-Jul-03 19:31N 49°47' W 124°44'8 6.6
2015-Jul-03 18:18N 49°50' W 124°32'1013.9
2015-Jul-03 17:33N 49°46' W 124°47'6 5.1
2015-Jul-03 16:27N 49°44' W 124°55'1112.3
2015-Jul-03 15:33N 49°48' W 124°39'4 4.3
2015-Jul-03 14:33N 49°50' W 124°33'1413.6
2015-Jul-03 13:33N 49°45' W 124°53'2 0.2
2015-Jul-03 05:16N 49°44' W 124°55'913.0
2015-Jul-03 04:32N 49°48' W 124°42'6 6.2
2015-Jul-03 03:33N 49°50' W 124°33'1414.2
2015-Jul-03 02:33N 49°45' W 124°54'1 1.2
2015-Jul-03 01:33N 49°44' W 124°55'1312.7
2015-Jul-03 00:33N 49°49' W 124°37'3 3.1
2015-Jul-02 23:33N 49°50' W 124°33'1413.7
2015-Jul-02 22:33N 49°45' W 124°52'2 1.9
2015-Jul-02 21:26N 49°44' W 124°55'0 0.0
2015-Jul-02 20:10N 49°44' W 124°55'812.8
2015-Jul-02 19:33N 49°47' W 124°44'8 6.8
2015-Jul-02 18:21N 49°50' W 124°32'1012.5
2015-Jul-02 17:33N 49°46' W 124°46'6 6.2
2015-Jul-02 16:33N 49°44' W 124°55'1111.4
2015-Jul-02 15:33N 49°48' W 124°39'3 3.5
2015-Jul-02 14:34N 49°50' W 124°34'1313.3
2015-Jul-02 13:33N 49°45' W 124°53'2 1.6
2015-Jul-02 12:33N 49°44' W 124°55'0 0.0
2015-Jul-02 05:16N 49°44' W 124°55'6 8.6
2015-Jul-02 04:33N 49°47' W 124°47'1010.2
2015-Jul-02 03:33N 49°50' W 124°32'1313.0
2015-Jul-02 02:33N 49°46' W 124°51'3 3.1
2015-Jul-02 01:34N 49°44' W 124°55'1312.6
2015-Jul-02 00:33N 49°49' W 124°37'3 2.9
2015-Jul-01 23:29N 49°50' W 124°33'1313.5
2015-Jul-01 22:33N 49°45' W 124°51'3 3.2
2015-Jul-01 21:33N 49°44' W 124°55'0 0.0
2015-Jul-01 20:33N 49°44' W 124°55'7 6.9
2015-Jul-01 19:33N 49°47' W 124°45'9 7.9
2015-Jul-01 18:22N 49°50' W 124°32'1012.4
2015-Jul-01 17:33N 49°46' W 124°47'6 6.1
2015-Jul-01 16:33N 49°44' W 124°55'1211.7
2015-Jul-01 15:33N 49°48' W 124°38'1 1.1
2015-Jul-01 14:33N 49°49' W 124°37'1312.6
2015-Jul-01 13:33N 49°44' W 124°55'0 0.2
2015-Jul-01 12:33N 49°44' W 124°55'0 0.0
2015-Jul-01 11:29N 49°44' W 124°55'0 0.0
2015-Jul-01 10:23N 49°44' W 124°55'0 0.0
2015-Jul-01 09:23N 49°44' W 124°55'0 0.0
2015-Jul-01 08:29N 49°44' W 124°55'0 0.0
2015-Jul-01 07:17N 49°44' W 124°55'0 0.0
2015-Jul-01 06:17N 49°44' W 124°55'0 0.0
2015-Jul-01 05:17N 49°44' W 124°55'7 9.0
2015-Jul-01 04:33N 49°47' W 124°46'10 9.5
2015-Jul-01 03:32N 49°50' W 124°32'1313.6
2015-Jul-01 02:33N 49°46' W 124°51'2 2.1
2015-Jul-01 01:33N 49°45' W 124°54'1211.9
2015-Jul-01 00:33N 49°49' W 124°37'3 2.9
2015-Jun-30 23:33N 49°50' W 124°33'1313.0
2015-Jun-30 22:33N 49°45' W 124°52'2 2.4
2015-Jun-30 21:32N 49°44' W 124°55'0 0.0
2015-Jun-30 20:32N 49°44' W 124°55'1111.0
2015-Jun-30 19:33N 49°48' W 124°40'5 5.1
2015-Jun-30 18:34N 49°50' W 124°33'1414.2
2015-Jun-30 17:33N 49°45' W 124°53'1 1.3
2015-Jun-30 16:24N 49°44' W 124°55'1112.6
2015-Jun-30 15:33N 49°48' W 124°40'5 4.6
2015-Jun-30 14:33N 49°50' W 124°33'1313.3
2015-Jun-30 13:33N 49°45' W 124°53'2 0.8
2015-Jun-30 11:09N 49°44' W 124°55'0 0.0
2015-Jun-30 07:18N 49°44' W 124°55'0 0.0
2015-Jun-30 06:30N 49°44' W 124°55'0 0.0
2015-Jun-30 05:30N 49°44' W 124°55'7 7.3
2015-Jun-30 04:34N 49°47' W 124°46'9 8.3
2015-Jun-30 03:28N 49°50' W 124°33'1314.5
2015-Jun-30 02:33N 49°46' W 124°51'3 2.8
2015-Jun-30 01:33N 49°44' W 124°55'1212.3
2015-Jun-30 00:33N 49°49' W 124°37'3 2.6
2015-Jun-29 23:33N 49°50' W 124°34'1313.1
2015-Jun-29 22:32N 49°45' W 124°53'2 1.6
2015-Jun-29 21:28N 49°44' W 124°55'0 0.0
2015-Jun-29 20:22N 49°44' W 124°55'910.4
2015-Jun-29 19:32N 49°48' W 124°43'8 6.7
2015-Jun-29 18:25N 49°50' W 124°32'1012.1
2015-Jun-29 17:33N 49°46' W 124°47'6 5.4
2015-Jun-29 16:29N 49°44' W 124°55'1212.6
2015-Jun-29 15:33N 49°49' W 124°38'1 1.0
2015-Jun-29 14:15N 49°48' W 124°40'1 0.2
2015-Jun-29 07:04N 49°48' W 124°39'714.3
2015-Jun-29 06:33N 49°46' W 124°49'4 1.3
2015-Jun-29 03:08N 49°47' W 124°43'2 0.6
2015-Jun-28 23:04N 49°47' W 124°47'5 0.6
2015-Jun-28 14:16N 49°48' W 124°39'  
Track history (hours):
 
Tides and Currents Weather Stations Pressure Air Temp Water Temp Dewpoint Dewpoint Depression Visibility Wind Speed Wind Dir Waves Ship Positions

Queen Of Burnaby

Last reported at 2015-Jul-08 01:32 UTC. Time now 2015-Jul-08 02:15 UTC.
Position N 49°44' W 124°55'.

Length 130 m; draft 4 m.

Type: Passenger vessel. MMSI: 316001246.

Date/timePositionNaut miles runAvg speedWind from/ knotsBaromVisibWave heightAir tempDewpointWater temp
2015-Jul-08 01:32N 49°44' W 124°55'1212.5
2015-Jul-08 00:33N 49°49' W 124°38'4 3.7
2015-Jul-07 23:33N 49°50' W 124°32'1313.3
2015-Jul-07 22:33N 49°46' W 124°52'3 1.1
2015-Jul-07 20:11N 49°44' W 124°55'711.2
2015-Jul-07 19:33N 49°47' W 124°45'9 7.6
2015-Jul-07 18:21N 49°50' W 124°32'1013.3
2015-Jul-07 17:33N 49°46' W 124°47'6 5.5
2015-Jul-07 16:30N 49°44' W 124°55'1010.9
2015-Jul-07 15:33N 49°48' W 124°40'5 4.7
2015-Jul-07 14:33N 49°50' W 124°34'1413.7
2015-Jul-07 13:33N 49°45' W 124°53'2 1.3
2015-Jul-07 12:22N 49°44' W 124°55'0 0.0
2015-Jul-07 11:25N 49°44' W 124°55'0 0.0
2015-Jul-07 10:31N 49°44' W 124°55'0 0.0
2015-Jul-07 09:16N 49°44' W 124°55'0 0.0
2015-Jul-07 08:28N 49°44' W 124°55'6 1.5
2015-Jul-07 04:33N 49°46' W 124°47'10 8.9
2015-Jul-07 03:27N 49°50' W 124°33'1213.9
2015-Jul-07 02:33N 49°46' W 124°51'3 3.3
2015-Jul-07 01:32N 49°44' W 124°55'1212.7
2015-Jul-07 00:33N 49°49' W 124°37'4 3.7
2015-Jul-06 23:33N 49°50' W 124°32'1313.5
2015-Jul-06 22:33N 49°46' W 124°52'3 2.6
2015-Jul-06 21:33N 49°44' W 124°55'0 0.0
2015-Jul-06 20:31N 49°44' W 124°55'8 8.5
2015-Jul-06 19:33N 49°48' W 124°44'8 6.9
2015-Jul-06 18:22N 49°50' W 124°32'1012.6
2015-Jul-06 17:33N 49°46' W 124°47'6 5.3
2015-Jul-06 16:27N 49°44' W 124°55'1112.4
2015-Jul-06 15:33N 49°48' W 124°40'4 4.0
2015-Jul-06 14:33N 49°50' W 124°34'1413.5
2015-Jul-06 13:33N 49°45' W 124°54'1 0.3
2015-Jul-06 08:17N 49°44' W 124°55'0 0.0
2015-Jul-06 07:26N 49°44' W 124°55'0 0.0
2015-Jul-06 05:13N 49°44' W 124°55'812.4
2015-Jul-06 04:33N 49°48' W 124°44'8 7.8
2015-Jul-06 03:31N 49°50' W 124°32'1313.6
2015-Jul-06 02:33N 49°46' W 124°51'2 1.6
2015-Jul-06 01:32N 49°45' W 124°54'1111.6
2015-Jul-06 00:33N 49°49' W 124°37'3 2.7
2015-Jul-05 23:32N 49°50' W 124°33'1413.9
2015-Jul-05 22:33N 49°45' W 124°53'2 0.8
2015-Jul-05 20:29N 49°44' W 124°55'7 7.6
2015-Jul-05 19:33N 49°47' W 124°45'9 6.9
2015-Jul-05 18:15N 49°50' W 124°32'1013.7
2015-Jul-05 17:33N 49°47' W 124°46'6 5.6
2015-Jul-05 16:24N 49°44' W 124°55'1012.1
2015-Jul-05 15:32N 49°48' W 124°40'5 5.3
2015-Jul-05 14:33N 49°50' W 124°33'1413.8
2015-Jul-05 13:33N 49°45' W 124°53'2 0.4
2015-Jul-05 08:28N 49°44' W 124°55'0 0.0
2015-Jul-05 07:28N 49°44' W 124°55'6 1.9
2015-Jul-05 04:33N 49°47' W 124°48'11 8.7
2015-Jul-05 03:20N 49°50' W 124°32'911.8
2015-Jul-05 02:33N 49°47' W 124°45'7 6.9
2015-Jul-05 01:32N 49°44' W 124°55'0 0.0
2015-Jul-05 00:32N 49°44' W 124°55'0 0.0
2015-Jul-04 23:32N 49°44' W 124°55'0 0.0
2015-Jul-04 22:32N 49°44' W 124°55'0 0.0
2015-Jul-04 21:32N 49°44' W 124°55'0 0.0
2015-Jul-04 20:33N 49°44' W 124°55'7 7.3
2015-Jul-04 19:33N 49°47' W 124°45'9 7.4
2015-Jul-04 18:21N 49°50' W 124°32'912.0
2015-Jul-04 17:34N 49°47' W 124°46'7 6.7
2015-Jul-04 16:33N 49°44' W 124°55'1111.0
2015-Jul-04 15:33N 49°48' W 124°39'4 4.0
2015-Jul-04 14:33N 49°50' W 124°34'1313.1
2015-Jul-04 13:33N 49°45' W 124°53'2 1.6
2015-Jul-04 12:23N 49°44' W 124°55'0 0.0
2015-Jul-04 11:29N 49°44' W 124°55'0 0.0
2015-Jul-04 10:32N 49°44' W 124°55'0 0.0
2015-Jul-04 09:29N 49°44' W 124°55'0 0.0
2015-Jul-04 08:23N 49°44' W 124°55'0 0.0
2015-Jul-04 05:17N 49°44' W 124°55'810.4
2015-Jul-04 04:33N 49°47' W 124°44'9 8.2
2015-Jul-04 03:31N 49°50' W 124°32'1313.9
2015-Jul-04 02:33N 49°46' W 124°51'3 2.8
2015-Jul-04 01:34N 49°44' W 124°55'1313.1
2015-Jul-04 00:32N 49°49' W 124°36'3 2.6
2015-Jul-03 23:33N 49°50' W 124°32'1413.8
2015-Jul-03 22:33N 49°45' W 124°52'2 2.0
2015-Jul-03 21:29N 49°44' W 124°55'0 0.0
2015-Jul-03 20:23N 49°44' W 124°55'8 9.2
2015-Jul-03 19:31N 49°47' W 124°44'8 6.6
2015-Jul-03 18:18N 49°50' W 124°32'1013.9
2015-Jul-03 17:33N 49°46' W 124°47'6 5.1
2015-Jul-03 16:27N 49°44' W 124°55'1112.3
2015-Jul-03 15:33N 49°48' W 124°39'4 4.3
2015-Jul-03 14:33N 49°50' W 124°33'1413.6
2015-Jul-03 13:33N 49°45' W 124°53'2 0.2
2015-Jul-03 05:16N 49°44' W 124°55'913.0
2015-Jul-03 04:32N 49°48' W 124°42'6 6.2
2015-Jul-03 03:33N 49°50' W 124°33'1414.2
2015-Jul-03 02:33N 49°45' W 124°54'1 1.2
2015-Jul-03 01:33N 49°44' W 124°55'1312.7
2015-Jul-03 00:33N 49°49' W 124°37'3 3.1
2015-Jul-02 23:33N 49°50' W 124°33'1413.7
2015-Jul-02 22:33N 49°45' W 124°52'2 1.9
2015-Jul-02 21:26N 49°44' W 124°55'0 0.0
2015-Jul-02 20:10N 49°44' W 124°55'812.8
2015-Jul-02 19:33N 49°47' W 124°44'8 6.8
2015-Jul-02 18:21N 49°50' W 124°32'1012.5
2015-Jul-02 17:33N 49°46' W 124°46'6 6.2
2015-Jul-02 16:33N 49°44' W 124°55'1111.4
2015-Jul-02 15:33N 49°48' W 124°39'3 3.5
2015-Jul-02 14:34N 49°50' W 124°34'1313.3
2015-Jul-02 13:33N 49°45' W 124°53'2 1.6
2015-Jul-02 12:33N 49°44' W 124°55'0 0.0
2015-Jul-02 05:16N 49°44' W 124°55'6 8.6
2015-Jul-02 04:33N 49°47' W 124°47'1010.2
2015-Jul-02 03:33N 49°50' W 124°32'1313.0
2015-Jul-02 02:33N 49°46' W 124°51'3 3.1
2015-Jul-02 01:34N 49°44' W 124°55'1312.6
2015-Jul-02 00:33N 49°49' W 124°37'3 2.9
2015-Jul-01 23:29N 49°50' W 124°33'1313.5
2015-Jul-01 22:33N 49°45' W 124°51'3 3.2
2015-Jul-01 21:33N 49°44' W 124°55'0 0.0
2015-Jul-01 20:33N 49°44' W 124°55'7 6.9
2015-Jul-01 19:33N 49°47' W 124°45'9 7.9
2015-Jul-01 18:22N 49°50' W 124°32'1012.4
2015-Jul-01 17:33N 49°46' W 124°47'6 6.1
2015-Jul-01 16:33N 49°44' W 124°55'1211.7
2015-Jul-01 15:33N 49°48' W 124°38'1 1.1
2015-Jul-01 14:33N 49°49' W 124°37'1312.6
2015-Jul-01 13:33N 49°44' W 124°55'0 0.2
2015-Jul-01 12:33N 49°44' W 124°55'0 0.0
2015-Jul-01 11:29N 49°44' W 124°55'0 0.0
2015-Jul-01 10:23N 49°44' W 124°55'0 0.0
2015-Jul-01 09:23N 49°44' W 124°55'0 0.0
2015-Jul-01 08:29N 49°44' W 124°55'0 0.0
2015-Jul-01 07:17N 49°44' W 124°55'0 0.0
2015-Jul-01 06:17N 49°44' W 124°55'0 0.0
2015-Jul-01 05:17N 49°44' W 124°55'7 9.0
2015-Jul-01 04:33N 49°47' W 124°46'10 9.5
2015-Jul-01 03:32N 49°50' W 124°32'1313.6
2015-Jul-01 02:33N 49°46' W 124°51'2 2.1
2015-Jul-01 01:33N 49°45' W 124°54'1211.9
2015-Jul-01 00:33N 49°49' W 124°37'3 2.9
2015-Jun-30 23:33N 49°50' W 124°33'1313.0
2015-Jun-30 22:33N 49°45' W 124°52'2 2.4
2015-Jun-30 21:32N 49°44' W 124°55'0 0.0
2015-Jun-30 20:32N 49°44' W 124°55'1111.0
2015-Jun-30 19:33N 49°48' W 124°40'5 5.1
2015-Jun-30 18:34N 49°50' W 124°33'1414.2
2015-Jun-30 17:33N 49°45' W 124°53'1 1.3
2015-Jun-30 16:24N 49°44' W 124°55'1112.6
2015-Jun-30 15:33N 49°48' W 124°40'5 4.6
2015-Jun-30 14:33N 49°50' W 124°33'1313.3
2015-Jun-30 13:33N 49°45' W 124°53'2 0.8
2015-Jun-30 11:09N 49°44' W 124°55'0 0.0
2015-Jun-30 07:18N 49°44' W 124°55'0 0.0
2015-Jun-30 06:30N 49°44' W 124°55'0 0.0
2015-Jun-30 05:30N 49°44' W 124°55'7 7.3
2015-Jun-30 04:34N 49°47' W 124°46'9 8.3
2015-Jun-30 03:28N 49°50' W 124°33'1314.5
2015-Jun-30 02:33N 49°46' W 124°51'3 2.8
2015-Jun-30 01:33N 49°44' W 124°55'1212.3
2015-Jun-30 00:33N 49°49' W 124°37'3 2.6
2015-Jun-29 23:33N 49°50' W 124°34'1313.1
2015-Jun-29 22:32N 49°45' W 124°53'2 1.6
2015-Jun-29 21:28N 49°44' W 124°55'0 0.0
2015-Jun-29 20:22N 49°44' W 124°55'910.4
2015-Jun-29 19:32N 49°48' W 124°43'8 6.7
2015-Jun-29 18:25N 49°50' W 124°32'1012.1
2015-Jun-29 17:33N 49°46' W 124°47'6 5.4
2015-Jun-29 16:29N 49°44' W 124°55'1212.6
2015-Jun-29 15:33N 49°49' W 124°38'1 1.0
2015-Jun-29 14:15N 49°48' W 124°40'1 0.2
2015-Jun-29 07:04N 49°48' W 124°39'714.3
2015-Jun-29 06:33N 49°46' W 124°49'4 1.3
2015-Jun-29 03:08N 49°47' W 124°43'2 0.6
2015-Jun-28 23:04N 49°47' W 124°47'5 0.6
2015-Jun-28 14:16N 49°48' W 124°39'  

Dump ship's entire track history